createdAt,value
2022-12-03T00:00:12.448Z,101253.03
2022-12-03T00:03:27.826Z,101258.91
2022-12-03T00:06:36.364Z,101260.78
2022-12-03T00:09:50.738Z,101274.84
2022-12-03T00:12:52.634Z,101271.63
2022-12-03T00:16:07.766Z,101276.31
2022-12-03T00:19:29.736Z,101280.41
2022-12-03T00:22:38.257Z,101285.69
2022-12-03T00:25:52.715Z,101281.37
2022-12-03T00:28:54.678Z,101282.41
2022-12-03T00:32:09.727Z,101286.28
2022-12-03T00:35:18.352Z,101285.06
2022-12-03T00:38:26.749Z,101296.44
2022-12-03T00:41:41.759Z,101294.19
2022-12-03T00:44:43.643Z,101294.19
2022-12-03T00:47:58.711Z,101287.09
2022-12-03T00:51:00.588Z,101293.38
2022-12-03T00:54:15.720Z,101290.53
2022-12-03T00:57:30.722Z,101289.75
2022-12-03T01:00:38.695Z,101295.44
2022-12-03T01:03:47.395Z,101290.53
2022-12-03T01:06:55.709Z,101279.19
2022-12-03T01:10:05.871Z,101279.34
2022-12-03T01:13:20.699Z,101278.13
2022-12-03T01:16:22.837Z,101281.59
2022-12-03T01:19:48.202Z,101286.03
2022-12-03T01:22:56.713Z,101288.69
2022-12-03T01:26:05.472Z,101286.44
2022-12-03T01:29:14.741Z,101279.75
2022-12-03T01:32:23.332Z,101284.41
2022-12-03T01:35:31.708Z,101283.59
2022-12-03T01:38:46.729Z,101295.00
2022-12-03T01:42:01.721Z,101287.28
2022-12-03T01:45:04.528Z,101292.97
2022-12-03T01:48:22.713Z,101291.75
2022-12-03T01:51:38.697Z,101292.56
2022-12-03T01:55:06.713Z,101297.84
2022-12-03T01:58:16.207Z,101289.47
2022-12-03T02:01:30.741Z,101291.94
2022-12-03T02:04:39.686Z,101288.03
2022-12-03T02:07:48.455Z,101293.94
2022-12-03T02:10:57.703Z,101291.09
2022-12-03T02:14:13.840Z,101287.19
2022-12-03T02:17:35.711Z,101286.38
2022-12-03T02:20:49.408Z,101275.41
2022-12-03T02:24:07.716Z,101284.75
2022-12-03T02:27:22.704Z,101282.91
2022-12-03T02:30:27.233Z,101281.91
2022-12-03T02:33:41.692Z,101288.66
2022-12-03T02:36:56.721Z,101284.16
2022-12-03T02:40:19.729Z,101288.03
2022-12-03T02:43:28.459Z,101283.56
2022-12-03T02:46:36.792Z,101281.34
2022-12-03T02:49:51.695Z,101283.34
2022-12-03T02:53:02.718Z,101282.72
2022-12-03T02:56:24.684Z,101286.00
2022-12-03T02:59:27.445Z,101275.28
2022-12-03T03:02:43.743Z,101282.72
2022-12-03T03:05:53.234Z,101298.63
2022-12-03T03:09:01.716Z,101282.72
2022-12-03T03:12:11.069Z,101285.19
2022-12-03T03:15:25.720Z,101282.91
2022-12-03T03:18:34.565Z,101283.50
2022-12-03T03:21:49.698Z,101265.25
2022-12-03T03:24:58.313Z,101287.56
2022-12-03T03:28:06.685Z,101286.56
2022-12-03T03:31:24.784Z,101290.44
2022-12-03T03:34:27.508Z,101280.47
2022-12-03T03:37:42.677Z,101286.75
2022-12-03T03:40:44.835Z,101281.06
2022-12-03T03:44:00.692Z,101285.97
2022-12-03T03:47:02.746Z,101281.47
2022-12-03T03:50:19.673Z,101282.09
2022-12-03T03:53:29.697Z,101282.69
2022-12-03T03:56:38.657Z,101287.53
2022-12-03T03:59:47.713Z,101293.66
2022-12-03T04:02:56.580Z,101291.22
2022-12-03T04:06:04.686Z,101287.56
2022-12-03T04:09:13.311Z,101282.31
2022-12-03T04:12:27.701Z,101287.19
2022-12-03T04:15:36.339Z,101291.72
2022-12-03T04:18:51.723Z,101294.31
2022-12-03T04:22:00.383Z,101303.69
2022-12-03T04:25:08.691Z,101297.19
2022-12-03T04:28:17.309Z,101294.91
2022-12-03T04:31:25.793Z,101293.53
2022-12-03T04:34:34.300Z,101292.50
2022-12-03T04:37:42.722Z,101295.41
2022-12-03T04:40:54.447Z,101295.84
2022-12-03T04:44:09.690Z,101293.59
2022-12-03T04:47:26.714Z,101288.09
2022-12-03T04:50:41.704Z,101290.63
2022-12-03T04:53:49.687Z,101292.88
2022-12-03T04:56:58.268Z,101302.66
2022-12-03T05:00:20.708Z,101300.59
2022-12-03T05:03:22.884Z,101307.34
2022-12-03T05:06:37.711Z,101309.38
2022-12-03T05:09:46.674Z,101305.09
2022-12-03T05:13:01.687Z,101293.69
2022-12-03T05:16:03.607Z,101293.06
2022-12-03T05:19:25.717Z,101300.81
2022-12-03T05:22:33.687Z,101313.38
2022-12-03T05:25:48.692Z,101310.94
2022-12-03T05:28:50.648Z,101306.84
2022-12-03T05:32:05.672Z,101295.06
2022-12-03T05:35:20.671Z,101309.50
2022-12-03T05:38:22.600Z,101302.78
2022-12-03T05:41:37.682Z,101306.22
2022-12-03T05:44:46.233Z,101309.84
2022-12-03T05:47:54.699Z,101319.03
2022-12-03T05:51:09.681Z,101320.03
2022-12-03T05:54:11.605Z,101307.22
2022-12-03T05:57:26.700Z,101320.41
2022-12-03T06:00:43.689Z,101327.91
2022-12-03T06:03:52.415Z,101320.56
2022-12-03T06:07:00.665Z,101331.16
2022-12-03T06:10:11.877Z,101336.03
2022-12-03T06:13:20.650Z,101336.66
2022-12-03T06:16:42.714Z,101331.13
2022-12-03T06:19:57.661Z,101316.28
2022-12-03T06:23:06.309Z,101320.12
2022-12-03T06:26:21.664Z,101316.91
2022-12-03T06:29:23.764Z,101331.31
2022-12-03T06:32:38.676Z,101329.50
2022-12-03T06:35:40.578Z,101312.00
2022-12-03T06:38:55.713Z,101314.00
2022-12-03T06:42:04.508Z,101306.28
2022-12-03T06:45:13.651Z,101330.31
2022-12-03T06:48:28.678Z,101335.37
2022-12-03T06:51:37.657Z,101331.13
2022-12-03T06:54:52.875Z,101329.88
2022-12-03T06:58:01.306Z,101322.31
2022-12-03T07:01:15.744Z,101322.94
2022-12-03T07:04:33.660Z,101331.69
2022-12-03T07:07:48.743Z,101331.06
2022-12-03T07:10:50.744Z,101341.66
2022-12-03T07:14:07.691Z,101331.06
2022-12-03T07:17:16.647Z,101330.00
2022-12-03T07:20:31.668Z,101327.59
2022-12-03T07:23:33.529Z,101325.34
2022-12-03T07:26:48.665Z,101331.84
2022-12-03T07:30:03.652Z,101335.94
2022-12-03T07:33:12.365Z,101329.78
2022-12-03T07:36:27.695Z,101324.25
2022-12-03T07:39:36.363Z,101343.81
2022-12-03T07:42:44.667Z,101340.72
2022-12-03T07:45:59.664Z,101340.72
2022-12-03T07:49:08.675Z,101343.97
2022-12-03T07:52:17.257Z,101347.00
2022-12-03T07:55:31.671Z,101338.59
2022-12-03T07:58:46.645Z,101340.44
2022-12-03T08:02:01.727Z,101327.34
2022-12-03T08:05:03.998Z,101325.84
2022-12-03T08:08:18.713Z,101328.66
2022-12-03T08:11:35.634Z,101333.09
2022-12-03T08:14:44.701Z,101341.03
2022-12-03T08:18:00.586Z,101337.31
2022-12-03T08:21:21.656Z,101345.56
2022-12-03T08:24:29.697Z,101348.84
2022-12-03T08:27:38.204Z,101345.50
2022-12-03T08:30:48.725Z,101352.28
2022-12-03T08:34:13.862Z,101342.69
2022-12-03T08:37:28.636Z,101354.63
2022-12-03T08:40:35.789Z,101359.22
2022-12-03T08:43:50.664Z,101342.81
2022-12-03T08:47:23.610Z,101347.53
2022-12-03T08:50:39.653Z,101353.44
2022-12-03T08:53:51.934Z,101348.94
2022-12-03T08:57:02.661Z,101358.31
2022-12-03T09:00:28.653Z,101344.94
2022-12-03T09:04:25.712Z,101362.28
2022-12-03T09:07:40.730Z,101361.97
2022-12-03T09:10:49.328Z,101368.47
2022-12-03T09:14:04.666Z,101356.03
2022-12-03T09:17:19.895Z,101359.81
2022-12-03T09:20:34.650Z,101365.41
2022-12-03T09:23:43.265Z,101364.75
2022-12-03T09:27:03.720Z,101350.97
2022-12-03T09:30:13.626Z,101346.47
2022-12-03T09:33:28.681Z,101338.41
2022-12-03T09:36:43.634Z,101340.41
2022-12-03T09:39:52.276Z,101337.06
2022-12-03T09:43:06.612Z,101323.59
2022-12-03T09:46:15.742Z,101325.69
2022-12-03T09:49:24.289Z,101325.97
2022-12-03T09:52:41.660Z,101324.38
2022-12-03T09:55:50.579Z,101323.69
2022-12-03T09:59:05.667Z,101321.00
2022-12-03T10:02:30.642Z,101311.66
2022-12-03T10:05:43.791Z,101313.75
2022-12-03T10:08:56.587Z,101316.66
2022-12-03T10:12:12.645Z,101314.00
2022-12-03T10:15:23.619Z,101306.59
2022-12-03T10:18:49.655Z,101299.97
2022-12-03T10:22:05.656Z,101299.75
2022-12-03T10:25:24.660Z,101281.44
2022-12-03T10:28:38.855Z,101290.69
2022-12-03T10:31:47.720Z,101282.25
2022-12-03T10:35:09.986Z,101283.81
2022-12-03T10:38:24.666Z,101276.59
2022-12-03T10:41:33.237Z,101274.59
2022-12-03T10:44:47.638Z,101276.53
2022-12-03T10:48:23.636Z,101267.63
2022-12-03T10:51:38.643Z,101267.66
2022-12-03T10:54:40.543Z,101263.50
2022-12-03T10:57:55.682Z,101267.91
2022-12-03T11:01:26.769Z,101261.88
2022-12-03T11:04:39.624Z,101252.28
2022-12-03T11:07:48.593Z,101262.69
2022-12-03T11:11:25.629Z,101247.53
2022-12-03T11:15:00.666Z,101240.94
2022-12-03T11:18:15.635Z,101239.91
2022-12-03T11:21:30.958Z,101250.63
2022-12-03T11:24:46.631Z,101236.63
2022-12-03T11:28:10.522Z,101229.91
2022-12-03T11:31:51.643Z,101225.66
2022-12-03T11:35:06.747Z,101214.84
2022-12-03T11:38:49.156Z,101212.75
2022-12-03T11:42:29.658Z,101220.16
2022-12-03T11:45:45.644Z,101214.00
2022-12-03T11:48:56.633Z,101214.78
2022-12-03T11:52:33.009Z,101211.28
2022-12-03T11:55:47.771Z,101215.34
2022-12-03T11:59:09.656Z,101203.31
2022-12-03T12:02:21.162Z,101201.47
2022-12-03T12:05:38.606Z,101211.28
2022-12-03T12:08:53.055Z,101208.94
2022-12-03T12:12:25.653Z,101206.25
2022-12-03T12:15:43.735Z,101197.13
2022-12-03T12:18:58.633Z,101190.03
2022-12-03T12:22:19.452Z,101194.66
2022-12-03T12:25:43.082Z,101194.50
2022-12-03T12:28:51.390Z,101181.44
2022-12-03T12:32:19.633Z,101180.28
2022-12-03T12:35:36.630Z,101187.28
2022-12-03T12:38:45.386Z,101181.06
2022-12-03T12:41:57.638Z,101186.28
2022-12-03T12:45:16.990Z,101195.09
2022-12-03T12:48:34.112Z,101188.38
2022-12-03T12:51:54.612Z,101185.47
2022-12-03T12:55:10.323Z,101182.00
2022-12-03T12:58:23.857Z,101177.47
2022-12-03T13:01:45.891Z,101167.94
2022-12-03T13:05:00.644Z,101175.53
2022-12-03T13:08:30.701Z,101174.06
2022-12-03T13:11:48.637Z,101167.16
2022-12-03T13:15:03.513Z,101158.34
2022-12-03T13:18:34.831Z,101162.97
2022-12-03T13:21:52.702Z,101167.00
2022-12-03T13:25:32.583Z,101172.91
2022-12-03T13:28:48.654Z,101180.06
2022-12-03T13:32:17.003Z,101181.38
2022-12-03T13:35:28.817Z,101172.91
2022-12-03T13:38:43.803Z,101176.13
2022-12-03T13:42:04.001Z,101180.19
2022-12-03T13:45:22.655Z,101185.75
2022-12-03T13:48:36.646Z,101184.38
2022-12-03T13:51:45.199Z,101181.47
2022-12-03T13:54:57.608Z,101174.53
2022-12-03T13:58:12.654Z,101177.91
2022-12-03T14:01:27.720Z,101180.00
2022-12-03T14:04:43.657Z,101187.41
2022-12-03T14:07:58.688Z,101176.28
2022-12-03T14:11:07.412Z,101185.63
2022-12-03T14:14:15.624Z,101199.09
2022-12-03T14:17:38.609Z,101193.31
2022-12-03T14:20:53.623Z,101189.41
2022-12-03T14:24:03.138Z,101191.00
2022-12-03T14:27:17.616Z,101189.75
2022-12-03T14:30:32.667Z,101188.94
2022-12-03T14:33:41.154Z,101198.09
2022-12-03T14:36:55.629Z,101192.97
2022-12-03T14:40:03.615Z,101196.25
2022-12-03T14:43:18.655Z,101194.38
2022-12-03T14:46:27.712Z,101196.81
2022-12-03T14:49:42.636Z,101194.06
2022-12-03T14:52:51.323Z,101200.19
2022-12-03T14:55:59.646Z,101199.00
2022-12-03T14:59:14.615Z,101191.41
2022-12-03T15:02:29.708Z,101197.88
2022-12-03T15:05:38.231Z,101206.53
2022-12-03T15:08:52.638Z,101208.97
2022-12-03T15:12:00.637Z,101209.91
2022-12-03T15:15:09.748Z,101204.59
2022-12-03T15:18:18.645Z,101209.91
2022-12-03T15:21:40.804Z,101208.31
2022-12-03T15:24:42.795Z,101204.00
2022-12-03T15:27:57.602Z,101196.47
2022-12-03T15:31:06.403Z,101196.16
2022-12-03T15:34:20.598Z,101205.16
2022-12-03T15:37:37.957Z,101201.59
2022-12-03T15:40:53.608Z,101203.44
2022-12-03T15:44:05.572Z,101207.81
2022-12-03T15:47:13.653Z,101207.25
2022-12-03T15:50:22.328Z,101208.50
2022-12-03T15:53:37.629Z,101205.47
2022-12-03T15:56:45.627Z,101205.94
2022-12-03T16:00:00.603Z,101199.22
2022-12-03T16:03:08.673Z,101202.38
2022-12-03T16:06:17.333Z,101199.47
2022-12-03T16:09:27.644Z,101203.16
2022-12-03T16:12:36.532Z,101188.81
2022-12-03T16:15:51.678Z,101198.44
2022-12-03T16:18:59.911Z,101209.16
2022-12-03T16:22:14.980Z,101209.63
2022-12-03T16:25:17.123Z,101207.97
2022-12-03T16:28:31.662Z,101216.44
2022-12-03T16:31:40.236Z,101216.63
2022-12-03T16:34:49.511Z,101216.31
2022-12-03T16:38:04.816Z,101218.81
2022-12-03T16:41:06.851Z,101214.78
2022-12-03T16:44:21.615Z,101217.19
2022-12-03T16:47:37.988Z,101217.66
2022-12-03T16:50:46.707Z,101221.34
2022-12-03T16:54:01.958Z,101211.06
2022-12-03T16:57:16.659Z,101213.72
2022-12-03T17:00:18.861Z,101211.25
2022-12-03T17:03:34.874Z,101215.22
2022-12-03T17:06:36.884Z,101213.00
2022-12-03T17:09:51.743Z,101206.63
2022-12-03T17:13:09.302Z,101215.66
2022-12-03T17:16:18.255Z,101211.75
2022-12-03T17:19:33.638Z,101207.91
2022-12-03T17:22:48.713Z,101214.69
2022-12-03T17:26:03.642Z,101212.72
2022-12-03T17:29:18.626Z,101206.97
2022-12-03T17:32:27.202Z,101214.69
2022-12-03T17:35:41.614Z,101220.00
2022-12-03T17:38:56.624Z,101218.62
2022-12-03T17:42:11.614Z,101221.28
2022-12-03T17:45:26.639Z,101212.50
2022-12-03T17:48:29.220Z,101212.13
2022-12-03T17:51:43.631Z,101214.22
2022-12-03T17:55:21.090Z,101213.63
2022-12-03T17:58:32.922Z,101213.63
2022-12-03T18:01:34.940Z,101217.78
2022-12-03T18:04:49.620Z,101216.00
2022-12-03T18:07:58.902Z,101217.63
2022-12-03T18:11:14.036Z,101217.06
2022-12-03T18:14:23.284Z,101216.47
2022-12-03T18:17:38.590Z,101217.50
2022-12-03T18:21:00.939Z,101216.56
2022-12-03T18:24:09.619Z,101212.63
2022-12-03T18:27:25.020Z,101218.75
2022-12-03T18:30:33.606Z,101217.34
2022-12-03T18:33:43.042Z,101212.28
2022-12-03T18:36:57.586Z,101215.50
2022-12-03T18:40:12.663Z,101212.50
2022-12-03T18:43:27.968Z,101220.47
2022-12-03T18:46:52.911Z,101223.31
2022-12-03T18:50:02.777Z,101224.38
2022-12-03T18:53:22.606Z,101225.06
2022-12-03T18:56:31.165Z,101229.97
2022-12-03T18:59:45.678Z,101220.19
2022-12-03T19:03:03.584Z,101216.78
2022-12-03T19:06:26.916Z,101224.75
2022-12-03T19:09:35.745Z,101219.09
2022-12-03T19:12:46.037Z,101217.69
2022-12-03T19:16:02.158Z,101210.59
2022-12-03T19:19:19.050Z,101221.16
2022-12-03T19:22:21.981Z,101226.66
2022-12-03T19:25:38.943Z,101230.81
2022-12-03T19:28:41.540Z,101228.97
2022-12-03T19:31:58.162Z,101226.16
2022-12-03T19:35:00.601Z,101227.41
2022-12-03T19:38:16.147Z,101229.47
2022-12-03T19:41:26.062Z,101235.22
2022-12-03T19:44:41.934Z,101231.53
2022-12-03T19:47:57.046Z,101235.59
2022-12-03T19:51:33.123Z,101235.12
2022-12-03T19:54:42.923Z,101238.19
2022-12-03T19:57:57.989Z,101237.59
2022-12-03T20:01:20.114Z,101236.34
2022-12-03T20:04:28.568Z,101247.31
2022-12-03T20:07:37.054Z,101248.94
2022-12-03T20:10:45.218Z,101240.75
2022-12-03T20:13:54.989Z,101236.69
2022-12-03T20:17:10.060Z,101234.63
2022-12-03T20:20:32.058Z,101243.84
2022-12-03T20:23:48.581Z,101247.97
2022-12-03T20:26:57.668Z,101240.41
2022-12-03T20:30:14.047Z,101249.53
2022-12-03T20:33:16.501Z,101244.66
2022-12-03T20:36:33.619Z,101233.81
2022-12-03T20:39:36.680Z,101231.16
2022-12-03T20:42:55.597Z,101239.94
2022-12-03T20:46:16.273Z,101231.38
2022-12-03T20:49:31.990Z,101240.59
2022-12-03T20:53:03.574Z,101235.09
2022-12-03T20:56:36.919Z,101234.94
2022-12-03T20:59:45.903Z,101236.53
2022-12-03T21:03:00.969Z,101223.00
2022-12-03T21:06:03.525Z,101229.63
2022-12-03T21:09:19.707Z,101232.06
2022-12-03T21:12:28.578Z,101235.09
2022-12-03T21:15:43.603Z,101223.87
2022-12-03T21:18:58.578Z,101226.09
2022-12-03T21:22:00.940Z,101219.97
2022-12-03T21:25:17.040Z,101221.81
2022-12-03T21:28:31.604Z,101230.56
2022-12-03T21:31:41.156Z,101237.50
2022-12-03T21:34:55.855Z,101237.88
2022-12-03T21:38:10.588Z,101241.34
2022-12-03T21:41:13.230Z,101231.31
2022-12-03T21:44:27.599Z,101212.22
2022-12-03T21:47:42.702Z,101219.81
2022-12-03T21:50:45.447Z,101222.25
2022-12-03T21:54:00.608Z,101221.00
2022-12-03T21:57:15.638Z,101216.72
2022-12-03T22:00:24.606Z,101225.25
2022-12-03T22:03:39.908Z,101218.53
2022-12-03T22:06:54.602Z,101209.25
2022-12-03T22:10:03.758Z,101211.78
2022-12-03T22:13:18.595Z,101217.53
2022-12-03T22:16:21.673Z,101221.44
2022-12-03T22:19:37.588Z,101211.41
2022-12-03T22:22:39.495Z,101214.44
2022-12-03T22:26:03.648Z,101210.53
2022-12-03T22:29:12.626Z,101214.34
2022-12-03T22:32:27.578Z,101196.88
2022-12-03T22:35:42.589Z,101207.19
2022-12-03T22:38:44.729Z,101203.72
2022-12-03T22:41:59.566Z,101203.97
2022-12-03T22:45:08.420Z,101187.75
2022-12-03T22:48:23.587Z,101193.78
2022-12-03T22:51:32.609Z,101202.91
2022-12-03T22:54:51.593Z,101201.88
2022-12-03T22:58:00.212Z,101196.94
2022-12-03T23:01:08.601Z,101192.44
2022-12-03T23:04:23.586Z,101200.41
2022-12-03T23:07:25.727Z,101200.41
2022-12-03T23:10:42.574Z,101180.94
2022-12-03T23:13:51.730Z,101199.09
2022-12-03T23:17:06.570Z,101189.06
2022-12-03T23:20:15.021Z,101192.72
2022-12-03T23:23:32.582Z,101180.28
2022-12-03T23:26:42.568Z,101190.91
2022-12-03T23:29:52.819Z,101182.69
2022-12-03T23:33:01.589Z,101186.13
2022-12-03T23:36:11.156Z,101179.63
2022-12-03T23:39:19.593Z,101182.72
2022-12-03T23:42:34.800Z,101175.38
2022-12-03T23:45:49.585Z,101176.25
2022-12-03T23:48:58.796Z,101180.75
2022-12-03T23:52:07.204Z,101177.97
2022-12-03T23:55:15.580Z,101180.25
2022-12-03T23:58:30.600Z,101172.75
